sensor_id;sensor_type;location;lat;lon;timestamp;P1;durP1;ratioP1;P2;durP2;ratioP2
85104;SDS011;75457;53.198;45.008;2024-03-08T00:03:43;7.10;;;3.77;;
85104;SDS011;75457;53.198;45.008;2024-03-08T00:08:35;8.77;;;4.87;;
85104;SDS011;75457;53.198;45.008;2024-03-08T00:11:01;8.98;;;5.75;;
85104;SDS011;75457;53.198;45.008;2024-03-08T00:13:26;11.00;;;5.00;;
85104;SDS011;75457;53.198;45.008;2024-03-08T00:15:52;9.45;;;5.40;;
85104;SDS011;75457;53.198;45.008;2024-03-08T00:20:43;10.00;;;4.60;;
85104;SDS011;75457;53.198;45.008;2024-03-08T00:23:08;8.70;;;4.55;;
85104;SDS011;75457;53.198;45.008;2024-03-08T00:25:35;9.98;;;5.57;;
85104;SDS011;75457;53.198;45.008;2024-03-08T00:28:01;8.65;;;4.40;;
85104;SDS011;75457;53.198;45.008;2024-03-08T00:30:27;10.50;;;5.45;;
85104;SDS011;75457;53.198;45.008;2024-03-08T00:32:52;9.80;;;5.45;;
85104;SDS011;75457;53.198;45.008;2024-03-08T00:37:43;8.27;;;4.20;;
85104;SDS011;75457;53.198;45.008;2024-03-08T00:40:09;8.15;;;4.53;;
85104;SDS011;75457;53.198;45.008;2024-03-08T00:42:36;9.13;;;5.20;;
85104;SDS011;75457;53.198;45.008;2024-03-08T00:45:02;6.70;;;4.50;;
85104;SDS011;75457;53.198;45.008;2024-03-08T00:49:53;10.87;;;4.77;;
85104;SDS011;75457;53.198;45.008;2024-03-08T00:52:19;8.15;;;4.03;;
85104;SDS011;75457;53.198;45.008;2024-03-08T00:57:10;7.07;;;4.73;;
85104;SDS011;75457;53.198;45.008;2024-03-08T00:59:37;8.80;;;4.45;;
85104;SDS011;75457;53.198;45.008;2024-03-08T01:02:03;7.90;;;4.43;;
85104;SDS011;75457;53.198;45.008;2024-03-08T01:04:29;9.40;;;5.25;;
85104;SDS011;75457;53.198;45.008;2024-03-08T01:06:54;8.65;;;5.45;;
85104;SDS011;75457;53.198;45.008;2024-03-08T01:09:20;8.43;;;4.57;;
85104;SDS011;75457;53.198;45.008;2024-03-08T01:11:46;8.23;;;4.90;;
85104;SDS011;75457;53.198;45.008;2024-03-08T01:14:11;9.02;;;5.32;;
85104;SDS011;75457;53.198;45.008;2024-03-08T01:19:03;7.05;;;4.45;;
85104;SDS011;75457;53.198;45.008;2024-03-08T01:21:29;8.10;;;4.35;;
85104;SDS011;75457;53.198;45.008;2024-03-08T01:26:20;8.87;;;5.40;;
85104;SDS011;75457;53.198;45.008;2024-03-08T01:28:45;7.75;;;4.22;;
85104;SDS011;75457;53.198;45.008;2024-03-08T01:33:38;7.53;;;4.27;;
85104;SDS011;75457;53.198;45.008;2024-03-08T01:36:03;8.63;;;5.15;;
85104;SDS011;75457;53.198;45.008;2024-03-08T01:40:55;11.17;;;4.70;;
85104;SDS011;75457;53.198;45.008;2024-03-08T01:43:20;8.75;;;4.68;;
85104;SDS011;75457;53.198;45.008;2024-03-08T01:45:47;8.45;;;4.72;;
85104;SDS011;75457;53.198;45.008;2024-03-08T01:48:12;7.60;;;4.28;;
85104;SDS011;75457;53.198;45.008;2024-03-08T01:50:40;8.43;;;4.32;;
85104;SDS011;75457;53.198;45.008;2024-03-08T01:53:06;7.65;;;4.35;;
85104;SDS011;75457;53.198;45.008;2024-03-08T01:55:33;6.72;;;4.05;;
85104;SDS011;75457;53.198;45.008;2024-03-08T01:57:59;7.50;;;4.82;;
85104;SDS011;75457;53.198;45.008;2024-03-08T02:00:25;8.32;;;5.05;;
85104;SDS011;75457;53.198;45.008;2024-03-08T02:02:51;6.22;;;4.35;;
85104;SDS011;75457;53.198;45.008;2024-03-08T02:05:19;9.02;;;4.65;;
85104;SDS011;75457;53.198;45.008;2024-03-08T02:07:46;8.13;;;4.55;;
85104;SDS011;75457;53.198;45.008;2024-03-08T02:10:12;8.52;;;4.90;;
85104;SDS011;75457;53.198;45.008;2024-03-08T02:12:38;8.98;;;5.22;;
85104;SDS011;75457;53.198;45.008;2024-03-08T02:17:32;7.57;;;4.20;;
85104;SDS011;75457;53.198;45.008;2024-03-08T02:19:58;9.00;;;4.82;;
85104;SDS011;75457;53.198;45.008;2024-03-08T02:24:51;9.15;;;4.18;;
85104;SDS011;75457;53.198;45.008;2024-03-08T02:27:22;9.38;;;4.80;;
85104;SDS011;75457;53.198;45.008;2024-03-08T02:29:48;8.38;;;4.85;;
85104;SDS011;75457;53.198;45.008;2024-03-08T02:32:14;8.63;;;4.85;;
85104;SDS011;75457;53.198;45.008;2024-03-08T02:34:40;9.18;;;5.55;;
85104;SDS011;75457;53.198;45.008;2024-03-08T02:37:05;9.35;;;5.32;;
85104;SDS011;75457;53.198;45.008;2024-03-08T02:39:32;10.38;;;4.82;;
85104;SDS011;75457;53.198;45.008;2024-03-08T02:41:58;11.02;;;4.68;;
85104;SDS011;75457;53.198;45.008;2024-03-08T02:44:24;9.73;;;5.45;;
85104;SDS011;75457;53.198;45.008;2024-03-08T02:49:14;8.00;;;4.17;;
85104;SDS011;75457;53.198;45.008;2024-03-08T02:51:40;8.23;;;4.82;;
85104;SDS011;75457;53.198;45.008;2024-03-08T02:56:32;9.07;;;3.92;;
85104;SDS011;75457;53.198;45.008;2024-03-08T02:58:58;9.57;;;4.85;;
85104;SDS011;75457;53.198;45.008;2024-03-08T03:01:23;10.10;;;4.47;;
85104;SDS011;75457;53.198;45.008;2024-03-08T03:03:49;8.95;;;5.35;;
85104;SDS011;75457;53.198;45.008;2024-03-08T03:06:14;10.05;;;4.78;;
85104;SDS011;75457;53.198;45.008;2024-03-08T03:08:40;8.73;;;4.35;;
85104;SDS011;75457;53.198;45.008;2024-03-08T03:11:06;7.50;;;4.80;;
85104;SDS011;75457;53.198;45.008;2024-03-08T03:13:33;7.22;;;4.85;;
85104;SDS011;75457;53.198;45.008;2024-03-08T03:15:58;8.45;;;4.72;;
85104;SDS011;75457;53.198;45.008;2024-03-08T03:18:24;9.52;;;5.03;;
85104;SDS011;75457;53.198;45.008;2024-03-08T03:20:49;10.73;;;5.45;;
85104;SDS011;75457;53.198;45.008;2024-03-08T03:23:16;9.13;;;5.13;;
85104;SDS011;75457;53.198;45.008;2024-03-08T03:25:41;8.98;;;4.82;;
85104;SDS011;75457;53.198;45.008;2024-03-08T03:28:07;7.55;;;3.85;;
85104;SDS011;75457;53.198;45.008;2024-03-08T03:30:34;8.95;;;4.72;;
85104;SDS011;75457;53.198;45.008;2024-03-08T03:33:00;8.85;;;4.72;;
85104;SDS011;75457;53.198;45.008;2024-03-08T03:35:26;6.32;;;4.10;;
85104;SDS011;75457;53.198;45.008;2024-03-08T03:37:52;8.18;;;4.70;;
85104;SDS011;75457;53.198;45.008;2024-03-08T03:40:17;7.03;;;4.53;;
85104;SDS011;75457;53.198;45.008;2024-03-08T03:42:43;8.88;;;4.78;;
85104;SDS011;75457;53.198;45.008;2024-03-08T03:45:08;8.85;;;5.22;;
85104;SDS011;75457;53.198;45.008;2024-03-08T03:47:35;9.48;;;5.13;;
85104;SDS011;75457;53.198;45.008;2024-03-08T03:50:01;8.98;;;5.35;;
85104;SDS011;75457;53.198;45.008;2024-03-08T03:52:27;8.32;;;4.70;;
85104;SDS011;75457;53.198;45.008;2024-03-08T03:54:52;8.35;;;5.10;;
85104;SDS011;75457;53.198;45.008;2024-03-08T03:57:18;9.57;;;5.70;;
85104;SDS011;75457;53.198;45.008;2024-03-08T03:59:43;9.18;;;4.97;;
85104;SDS011;75457;53.198;45.008;2024-03-08T04:02:09;8.73;;;5.18;;
85104;SDS011;75457;53.198;45.008;2024-03-08T04:04:36;7.93;;;4.65;;
85104;SDS011;75457;53.198;45.008;2024-03-08T04:07:01;9.13;;;5.50;;
85104;SDS011;75457;53.198;45.008;2024-03-08T04:09:27;7.75;;;4.68;;
85104;SDS011;75457;53.198;45.008;2024-03-08T04:14:18;12.17;;;6.33;;
85104;SDS011;75457;53.198;45.008;2024-03-08T04:16:43;9.10;;;5.35;;
85104;SDS011;75457;53.198;45.008;2024-03-08T04:21:36;7.57;;;4.80;;
85104;SDS011;75457;53.198;45.008;2024-03-08T04:24:01;8.52;;;4.88;;
85104;SDS011;75457;53.198;45.008;2024-03-08T04:26:27;8.15;;;5.22;;
85104;SDS011;75457;53.198;45.008;2024-03-08T04:31:18;10.97;;;5.70;;
85104;SDS011;75457;53.198;45.008;2024-03-08T04:36:09;9.10;;;4.80;;
85104;SDS011;75457;53.198;45.008;2024-03-08T04:41:01;10.77;;;5.85;;
85104;SDS011;75457;53.198;45.008;2024-03-08T04:45:53;10.80;;;5.47;;
85104;SDS011;75457;53.198;45.008;2024-03-08T04:50:43;9.23;;;5.57;;
85104;SDS011;75457;53.198;45.008;2024-03-08T04:55:36;10.47;;;5.40;;
85104;SDS011;75457;53.198;45.008;2024-03-08T04:58:01;10.63;;;6.15;;
85104;SDS011;75457;53.198;45.008;2024-03-08T05:02:52;10.13;;;5.53;;
85104;SDS011;75457;53.198;45.008;2024-03-08T05:07:43;11.40;;;6.38;;
85104;SDS011;75457;53.198;45.008;2024-03-08T05:12:36;7.57;;;4.97;;
85104;SDS011;75457;53.198;45.008;2024-03-08T05:15:01;9.82;;;6.07;;
85104;SDS011;75457;53.198;45.008;2024-03-08T05:19:53;11.20;;;6.13;;
85104;SDS011;75457;53.198;45.008;2024-03-08T05:24:43;8.30;;;5.83;;
85104;SDS011;75457;53.198;45.008;2024-03-08T05:29:36;8.05;;;5.32;;
85104;SDS011;75457;53.198;45.008;2024-03-08T05:32:01;13.85;;;6.50;;
85104;SDS011;75457;53.198;45.008;2024-03-08T05:36:52;12.30;;;5.83;;
85104;SDS011;75457;53.198;45.008;2024-03-08T05:41:43;12.38;;;6.43;;
85104;SDS011;75457;53.198;45.008;2024-03-08T05:46:36;12.80;;;7.05;;
85104;SDS011;75457;53.198;45.008;2024-03-08T05:49:02;10.35;;;6.60;;
85104;SDS011;75457;53.198;45.008;2024-03-08T05:53:53;11.40;;;6.87;;
85104;SDS011;75457;53.198;45.008;2024-03-08T05:56:19;11.27;;;6.35;;
85104;SDS011;75457;53.198;45.008;2024-03-08T06:01:10;10.77;;;6.63;;
85104;SDS011;75457;53.198;45.008;2024-03-08T06:03:37;11.18;;;6.82;;
85104;SDS011;75457;53.198;45.008;2024-03-08T06:06:02;12.48;;;6.70;;
85104;SDS011;75457;53.198;45.008;2024-03-08T06:08:28;12.63;;;6.75;;
85104;SDS011;75457;53.198;45.008;2024-03-08T06:10:54;11.95;;;7.32;;
85104;SDS011;75457;53.198;45.008;2024-03-08T06:13:20;14.10;;;6.95;;
85104;SDS011;75457;53.198;45.008;2024-03-08T06:15:45;12.50;;;6.68;;
85104;SDS011;75457;53.198;45.008;2024-03-08T06:18:11;10.13;;;6.25;;
85104;SDS011;75457;53.198;45.008;2024-03-08T06:20:38;11.57;;;7.13;;
85104;SDS011;75457;53.198;45.008;2024-03-08T06:23:03;12.40;;;6.43;;
85104;SDS011;75457;53.198;45.008;2024-03-08T06:25:29;13.13;;;6.28;;
85104;SDS011;75457;53.198;45.008;2024-03-08T06:27:54;12.95;;;6.05;;
85104;SDS011;75457;53.198;45.008;2024-03-08T06:30:20;10.80;;;6.15;;
85104;SDS011;75457;53.198;45.008;2024-03-08T06:32:46;12.68;;;7.20;;
85104;SDS011;75457;53.198;45.008;2024-03-08T06:35:11;14.25;;;6.07;;
85104;SDS011;75457;53.198;45.008;2024-03-08T06:37:38;11.93;;;6.00;;
85104;SDS011;75457;53.198;45.008;2024-03-08T06:40:04;12.13;;;6.85;;
85104;SDS011;75457;53.198;45.008;2024-03-08T06:42:30;8.93;;;5.93;;
85104;SDS011;75457;53.198;45.008;2024-03-08T06:44:56;11.57;;;7.05;;
85104;SDS011;75457;53.198;45.008;2024-03-08T06:47:21;10.38;;;5.50;;
85104;SDS011;75457;53.198;45.008;2024-03-08T06:49:47;9.95;;;5.90;;
85104;SDS011;75457;53.198;45.008;2024-03-08T06:52:12;12.45;;;6.57;;
85104;SDS011;75457;53.198;45.008;2024-03-08T06:54:39;11.85;;;7.10;;
85104;SDS011;75457;53.198;45.008;2024-03-08T06:57:05;11.52;;;6.65;;
85104;SDS011;75457;53.198;45.008;2024-03-08T06:59:31;12.10;;;6.65;;
85104;SDS011;75457;53.198;45.008;2024-03-08T07:01:56;11.25;;;6.32;;
85104;SDS011;75457;53.198;45.008;2024-03-08T07:04:22;13.43;;;6.95;;
85104;SDS011;75457;53.198;45.008;2024-03-08T07:06:47;10.43;;;6.30;;
85104;SDS011;75457;53.198;45.008;2024-03-08T07:09:13;9.82;;;6.30;;
85104;SDS011;75457;53.198;45.008;2024-03-08T07:11:40;7.30;;;4.68;;
85104;SDS011;75457;53.198;45.008;2024-03-08T07:14:05;12.52;;;6.50;;
85104;SDS011;75457;53.198;45.008;2024-03-08T07:16:31;9.95;;;5.55;;
85104;SDS011;75457;53.198;45.008;2024-03-08T07:18:57;11.73;;;5.95;;
85104;SDS011;75457;53.198;45.008;2024-03-08T07:21:22;10.05;;;6.20;;
85104;SDS011;75457;53.198;45.008;2024-03-08T07:23:48;13.52;;;6.88;;
85104;SDS011;75457;53.198;45.008;2024-03-08T07:26:14;8.80;;;6.43;;
85104;SDS011;75457;53.198;45.008;2024-03-08T07:28:42;11.52;;;6.50;;
85104;SDS011;75457;53.198;45.008;2024-03-08T07:31:07;14.10;;;6.47;;
85104;SDS011;75457;53.198;45.008;2024-03-08T07:33:33;10.75;;;6.85;;
85104;SDS011;75457;53.198;45.008;2024-03-08T07:35:58;12.38;;;6.43;;
85104;SDS011;75457;53.198;45.008;2024-03-08T07:38:24;10.00;;;6.43;;
85104;SDS011;75457;53.198;45.008;2024-03-08T07:40:49;11.00;;;6.15;;
85104;SDS011;75457;53.198;45.008;2024-03-08T07:43:15;10.50;;;6.47;;
85104;SDS011;75457;53.198;45.008;2024-03-08T07:45:42;13.77;;;5.97;;
85104;SDS011;75457;53.198;45.008;2024-03-08T07:48:07;8.40;;;5.78;;
85104;SDS011;75457;53.198;45.008;2024-03-08T07:50:33;9.93;;;6.10;;
85104;SDS011;75457;53.198;45.008;2024-03-08T07:52:59;9.25;;;6.00;;
85104;SDS011;75457;53.198;45.008;2024-03-08T07:55:24;8.63;;;5.80;;
85104;SDS011;75457;53.198;45.008;2024-03-08T07:57:50;11.90;;;6.57;;
85104;SDS011;75457;53.198;45.008;2024-03-08T08:00:16;10.90;;;5.85;;
85104;SDS011;75457;53.198;45.008;2024-03-08T08:02:43;10.35;;;6.30;;
85104;SDS011;75457;53.198;45.008;2024-03-08T08:05:09;8.80;;;6.13;;
85104;SDS011;75457;53.198;45.008;2024-03-08T08:07:35;13.27;;;5.95;;
85104;SDS011;75457;53.198;45.008;2024-03-08T08:10:00;9.95;;;5.85;;
85104;SDS011;75457;53.198;45.008;2024-03-08T08:12:26;10.48;;;6.22;;
85104;SDS011;75457;53.198;45.008;2024-03-08T08:14:51;11.07;;;6.85;;
85104;SDS011;75457;53.198;45.008;2024-03-08T08:17:17;12.10;;;6.70;;
85104;SDS011;75457;53.198;45.008;2024-03-08T08:19:44;11.82;;;6.72;;
85104;SDS011;75457;53.198;45.008;2024-03-08T08:22:09;12.57;;;6.43;;
85104;SDS011;75457;53.198;45.008;2024-03-08T08:24:35;12.25;;;6.47;;
85104;SDS011;75457;53.198;45.008;2024-03-08T08:27:01;12.13;;;6.80;;
85104;SDS011;75457;53.198;45.008;2024-03-08T08:29:26;9.07;;;5.88;;
85104;SDS011;75457;53.198;45.008;2024-03-08T08:31:52;10.70;;;6.45;;
85104;SDS011;75457;53.198;45.008;2024-03-08T08:34:17;11.75;;;6.60;;
85104;SDS011;75457;53.198;45.008;2024-03-08T08:36:44;9.55;;;5.85;;
85104;SDS011;75457;53.198;45.008;2024-03-08T08:39:10;12.18;;;6.53;;
85104;SDS011;75457;53.198;45.008;2024-03-08T08:41:36;9.70;;;6.15;;
85104;SDS011;75457;53.198;45.008;2024-03-08T08:44:01;10.25;;;6.70;;
85104;SDS011;75457;53.198;45.008;2024-03-08T08:46:27;11.00;;;6.47;;
85104;SDS011;75457;53.198;45.008;2024-03-08T08:48:52;10.68;;;6.40;;
85104;SDS011;75457;53.198;45.008;2024-03-08T08:51:18;11.73;;;6.13;;
85104;SDS011;75457;53.198;45.008;2024-03-08T08:53:47;10.52;;;6.25;;
85104;SDS011;75457;53.198;45.008;2024-03-08T08:56:13;9.75;;;6.35;;
85104;SDS011;75457;53.198;45.008;2024-03-08T08:58:39;10.48;;;5.50;;
85104;SDS011;75457;53.198;45.008;2024-03-08T09:01:04;11.13;;;6.45;;
85104;SDS011;75457;53.198;45.008;2024-03-08T09:03:30;9.55;;;6.47;;
85104;SDS011;75457;53.198;45.008;2024-03-08T09:05:56;9.50;;;6.40;;
85104;SDS011;75457;53.198;45.008;2024-03-08T09:08:21;10.38;;;6.60;;
85104;SDS011;75457;53.198;45.008;2024-03-08T09:10:48;11.82;;;6.95;;
85104;SDS011;75457;53.198;45.008;2024-03-08T09:13:14;11.52;;;6.97;;
85104;SDS011;75457;53.198;45.008;2024-03-08T09:15:39;9.10;;;6.75;;
85104;SDS011;75457;53.198;45.008;2024-03-08T09:18:05;10.77;;;6.55;;
85104;SDS011;75457;53.198;45.008;2024-03-08T09:20:31;10.95;;;6.72;;
85104;SDS011;75457;53.198;45.008;2024-03-08T09:22:56;10.15;;;6.82;;
85104;SDS011;75457;53.198;45.008;2024-03-08T09:25:22;10.77;;;7.13;;
85104;SDS011;75457;53.198;45.008;2024-03-08T09:27:49;11.63;;;6.80;;
85104;SDS011;75457;53.198;45.008;2024-03-08T09:30:14;11.13;;;7.25;;
85104;SDS011;75457;53.198;45.008;2024-03-08T09:32:41;12.15;;;6.32;;
85104;SDS011;75457;53.198;45.008;2024-03-08T09:35:07;9.25;;;6.03;;
85104;SDS011;75457;53.198;45.008;2024-03-08T09:37:33;12.70;;;7.00;;
85104;SDS011;75457;53.198;45.008;2024-03-08T09:39:58;10.75;;;6.43;;
85104;SDS011;75457;53.198;45.008;2024-03-08T09:42:24;10.13;;;6.55;;
85104;SDS011;75457;53.198;45.008;2024-03-08T09:44:51;10.57;;;6.45;;
85104;SDS011;75457;53.198;45.008;2024-03-08T09:47:17;11.68;;;6.28;;
85104;SDS011;75457;53.198;45.008;2024-03-08T09:49:43;12.50;;;7.00;;
85104;SDS011;75457;53.198;45.008;2024-03-08T09:52:09;13.13;;;7.05;;
85104;SDS011;75457;53.198;45.008;2024-03-08T09:54:35;12.88;;;7.35;;
85104;SDS011;75457;53.198;45.008;2024-03-08T09:57:01;15.05;;;7.75;;
85104;SDS011;75457;53.198;45.008;2024-03-08T09:59:29;14.00;;;7.88;;
85104;SDS011;75457;53.198;45.008;2024-03-08T10:01:56;12.73;;;7.65;;
85104;SDS011;75457;53.198;45.008;2024-03-08T10:04:21;15.02;;;8.07;;
85104;SDS011;75457;53.198;45.008;2024-03-08T10:06:47;13.65;;;7.95;;
85104;SDS011;75457;53.198;45.008;2024-03-08T10:09:13;15.50;;;7.47;;
85104;SDS011;75457;53.198;45.008;2024-03-08T10:11:39;12.65;;;7.72;;
85104;SDS011;75457;53.198;45.008;2024-03-08T10:14:05;13.75;;;8.48;;
85104;SDS011;75457;53.198;45.008;2024-03-08T10:16:30;11.82;;;7.25;;
85104;SDS011;75457;53.198;45.008;2024-03-08T10:18:57;15.13;;;7.07;;
85104;SDS011;75457;53.198;45.008;2024-03-08T10:21:23;14.60;;;7.72;;
85104;SDS011;75457;53.198;45.008;2024-03-08T10:23:48;11.50;;;7.05;;
85104;SDS011;75457;53.198;45.008;2024-03-08T10:26:15;12.27;;;8.00;;
85104;SDS011;75457;53.198;45.008;2024-03-08T10:28:41;11.68;;;7.55;;
85104;SDS011;75457;53.198;45.008;2024-03-08T10:31:07;12.88;;;7.97;;
85104;SDS011;75457;53.198;45.008;2024-03-08T10:33:33;12.18;;;7.25;;
85104;SDS011;75457;53.198;45.008;2024-03-08T10:36:00;11.27;;;7.55;;
85104;SDS011;75457;53.198;45.008;2024-03-08T10:38:26;13.23;;;8.63;;
85104;SDS011;75457;53.198;45.008;2024-03-08T10:40:54;13.63;;;7.93;;
85104;SDS011;75457;53.198;45.008;2024-03-08T10:43:22;14.07;;;8.60;;
85104;SDS011;75457;53.198;45.008;2024-03-08T10:45:49;12.00;;;7.10;;
85104;SDS011;75457;53.198;45.008;2024-03-08T10:48:25;13.20;;;7.72;;
85104;SDS011;75457;53.198;45.008;2024-03-08T10:50:53;12.35;;;7.72;;
85104;SDS011;75457;53.198;45.008;2024-03-08T10:53:20;12.55;;;8.05;;
85104;SDS011;75457;53.198;45.008;2024-03-08T10:55:48;11.77;;;7.00;;
85104;SDS011;75457;53.198;45.008;2024-03-08T10:58:14;11.75;;;7.18;;
85104;SDS011;75457;53.198;45.008;2024-03-08T11:00:42;12.75;;;7.22;;
85104;SDS011;75457;53.198;45.008;2024-03-08T11:03:09;11.00;;;6.75;;
85104;SDS011;75457;53.198;45.008;2024-03-08T11:06:11;11.65;;;7.38;;
85104;SDS011;75457;53.198;45.008;2024-03-08T11:08:42;12.50;;;7.70;;
85104;SDS011;75457;53.198;45.008;2024-03-08T11:11:22;17.27;;;7.43;;
85104;SDS011;75457;53.198;45.008;2024-03-08T11:13:50;11.20;;;6.53;;
85104;SDS011;75457;53.198;45.008;2024-03-08T11:19:05;11.68;;;7.07;;
85104;SDS011;75457;53.198;45.008;2024-03-08T11:21:31;9.88;;;6.53;;
85104;SDS011;75457;53.198;45.008;2024-03-08T11:24:00;11.23;;;7.20;;
85104;SDS011;75457;53.198;45.008;2024-03-08T11:26:26;11.70;;;6.60;;
85104;SDS011;75457;53.198;45.008;2024-03-08T11:28:52;10.80;;;6.68;;
85104;SDS011;75457;53.198;45.008;2024-03-08T11:31:23;10.30;;;6.43;;
85104;SDS011;75457;53.198;45.008;2024-03-08T11:33:50;11.55;;;6.85;;
85104;SDS011;75457;53.198;45.008;2024-03-08T11:36:19;12.02;;;7.03;;
85104;SDS011;75457;53.198;45.008;2024-03-08T11:38:46;13.40;;;7.50;;
85104;SDS011;75457;53.198;45.008;2024-03-08T11:41:13;11.45;;;7.43;;
85104;SDS011;75457;53.198;45.008;2024-03-08T11:43:38;10.23;;;6.90;;
85104;SDS011;75457;53.198;45.008;2024-03-08T11:46:07;13.93;;;7.85;;
85104;SDS011;75457;53.198;45.008;2024-03-08T11:48:33;12.80;;;7.22;;
85104;SDS011;75457;53.198;45.008;2024-03-08T11:50:59;10.57;;;7.00;;
85104;SDS011;75457;53.198;45.008;2024-03-08T11:53:25;16.42;;;9.93;;
85104;SDS011;75457;53.198;45.008;2024-03-08T11:55:51;15.82;;;8.10;;
85104;SDS011;75457;53.198;45.008;2024-03-08T11:58:18;13.77;;;8.40;;
85104;SDS011;75457;53.198;45.008;2024-03-08T12:00:43;11.45;;;7.38;;
85104;SDS011;75457;53.198;45.008;2024-03-08T12:03:09;11.35;;;6.85;;
85104;SDS011;75457;53.198;45.008;2024-03-08T12:05:35;13.95;;;8.02;;
85104;SDS011;75457;53.198;45.008;2024-03-08T12:08:01;12.07;;;7.95;;
85104;SDS011;75457;53.198;45.008;2024-03-08T12:10:27;14.48;;;7.60;;
85104;SDS011;75457;53.198;45.008;2024-03-08T12:12:53;10.77;;;6.90;;
85104;SDS011;75457;53.198;45.008;2024-03-08T12:15:23;11.52;;;7.18;;
85104;SDS011;75457;53.198;45.008;2024-03-08T12:17:49;14.50;;;9.30;;
85104;SDS011;75457;53.198;45.008;2024-03-08T12:20:17;11.57;;;7.82;;
85104;SDS011;75457;53.198;45.008;2024-03-08T12:22:44;14.43;;;8.43;;
85104;SDS011;75457;53.198;45.008;2024-03-08T12:25:11;11.77;;;8.43;;
85104;SDS011;75457;53.198;45.008;2024-03-08T12:27:37;12.85;;;7.20;;
85104;SDS011;75457;53.198;45.008;2024-03-08T12:30:14;12.82;;;9.18;;
85104;SDS011;75457;53.198;45.008;2024-03-08T12:32:47;12.02;;;7.18;;
85104;SDS011;75457;53.198;45.008;2024-03-08T12:35:14;12.10;;;8.10;;
85104;SDS011;75457;53.198;45.008;2024-03-08T12:37:39;12.98;;;8.25;;
85104;SDS011;75457;53.198;45.008;2024-03-08T12:40:07;14.05;;;7.88;;
85104;SDS011;75457;53.198;45.008;2024-03-08T12:42:34;15.25;;;8.35;;
85104;SDS011;75457;53.198;45.008;2024-03-08T12:44:59;11.43;;;8.10;;
85104;SDS011;75457;53.198;45.008;2024-03-08T12:47:25;13.60;;;8.82;;
85104;SDS011;75457;53.198;45.008;2024-03-08T12:49:52;12.65;;;7.78;;
85104;SDS011;75457;53.198;45.008;2024-03-08T12:52:17;13.80;;;8.75;;
85104;SDS011;75457;53.198;45.008;2024-03-08T12:54:44;13.57;;;8.68;;
85104;SDS011;75457;53.198;45.008;2024-03-08T12:57:10;14.75;;;9.70;;
85104;SDS011;75457;53.198;45.008;2024-03-08T12:59:35;15.55;;;9.35;;
85104;SDS011;75457;53.198;45.008;2024-03-08T13:02:01;14.57;;;8.30;;
85104;SDS011;75457;53.198;45.008;2024-03-08T13:04:27;14.35;;;8.73;;
85104;SDS011;75457;53.198;45.008;2024-03-08T13:06:54;13.68;;;9.05;;
85104;SDS011;75457;53.198;45.008;2024-03-08T13:09:19;16.20;;;9.52;;
85104;SDS011;75457;53.198;45.008;2024-03-08T13:11:45;16.33;;;9.20;;
85104;SDS011;75457;53.198;45.008;2024-03-08T13:14:10;13.77;;;8.48;;
85104;SDS011;75457;53.198;45.008;2024-03-08T13:16:36;15.73;;;9.02;;
85104;SDS011;75457;53.198;45.008;2024-03-08T13:19:01;15.77;;;8.75;;
85104;SDS011;75457;53.198;45.008;2024-03-08T13:21:27;16.73;;;9.90;;
85104;SDS011;75457;53.198;45.008;2024-03-08T13:23:54;18.17;;;9.85;;
85104;SDS011;75457;53.198;45.008;2024-03-08T13:26:20;14.80;;;9.80;;
85104;SDS011;75457;53.198;45.008;2024-03-08T13:28:45;16.13;;;10.73;;
85104;SDS011;75457;53.198;45.008;2024-03-08T13:31:11;16.77;;;10.10;;
85104;SDS011;75457;53.198;45.008;2024-03-08T13:33:37;15.10;;;9.60;;
85104;SDS011;75457;53.198;45.008;2024-03-08T13:36:03;16.85;;;9.75;;
85104;SDS011;75457;53.198;45.008;2024-03-08T13:38:30;15.98;;;9.70;;
85104;SDS011;75457;53.198;45.008;2024-03-08T13:40:56;14.95;;;9.63;;
85104;SDS011;75457;53.198;45.008;2024-03-08T13:43:22;15.40;;;10.05;;
85104;SDS011;75457;53.198;45.008;2024-03-08T13:45:48;16.10;;;9.52;;
85104;SDS011;75457;53.198;45.008;2024-03-08T13:48:14;14.50;;;8.98;;
85104;SDS011;75457;53.198;45.008;2024-03-08T13:50:39;16.90;;;10.30;;
85104;SDS011;75457;53.198;45.008;2024-03-08T13:53:05;16.65;;;10.02;;
85104;SDS011;75457;53.198;45.008;2024-03-08T13:55:31;15.10;;;9.45;;
85104;SDS011;75457;53.198;45.008;2024-03-08T13:57:58;16.58;;;9.95;;
85104;SDS011;75457;53.198;45.008;2024-03-08T14:00:23;15.80;;;9.73;;
85104;SDS011;75457;53.198;45.008;2024-03-08T14:02:49;18.98;;;9.60;;
85104;SDS011;75457;53.198;45.008;2024-03-08T14:05:14;15.93;;;10.63;;
85104;SDS011;75457;53.198;45.008;2024-03-08T14:07:40;17.20;;;10.13;;
85104;SDS011;75457;53.198;45.008;2024-03-08T14:10:06;15.80;;;9.90;;
85104;SDS011;75457;53.198;45.008;2024-03-08T14:12:32;19.35;;;10.18;;
85104;SDS011;75457;53.198;45.008;2024-03-08T14:14:59;17.05;;;10.30;;
85104;SDS011;75457;53.198;45.008;2024-03-08T14:17:25;14.70;;;9.60;;
85104;SDS011;75457;53.198;45.008;2024-03-08T14:19:51;16.00;;;9.43;;
85104;SDS011;75457;53.198;45.008;2024-03-08T14:22:16;18.30;;;10.27;;
85104;SDS011;75457;53.198;45.008;2024-03-08T14:24:42;17.73;;;9.95;;
85104;SDS011;75457;53.198;45.008;2024-03-08T14:27:08;17.25;;;10.07;;
85104;SDS011;75457;53.198;45.008;2024-03-08T14:29:33;19.38;;;10.65;;
85104;SDS011;75457;53.198;45.008;2024-03-08T14:32:00;15.10;;;10.60;;
85104;SDS011;75457;53.198;45.008;2024-03-08T14:34:26;15.38;;;9.15;;
85104;SDS011;75457;53.198;45.008;2024-03-08T14:36:51;16.67;;;10.10;;
85104;SDS011;75457;53.198;45.008;2024-03-08T14:39:17;19.02;;;11.00;;
85104;SDS011;75457;53.198;45.008;2024-03-08T14:41:43;16.42;;;9.57;;
85104;SDS011;75457;53.198;45.008;2024-03-08T14:44:08;18.35;;;10.18;;
85104;SDS011;75457;53.198;45.008;2024-03-08T14:46:34;16.33;;;9.75;;
85104;SDS011;75457;53.198;45.008;2024-03-08T14:49:01;16.35;;;9.65;;
85104;SDS011;75457;53.198;45.008;2024-03-08T14:51:27;17.10;;;10.68;;
85104;SDS011;75457;53.198;45.008;2024-03-08T14:53:53;17.45;;;10.55;;
85104;SDS011;75457;53.198;45.008;2024-03-08T14:56:18;16.60;;;9.88;;
85104;SDS011;75457;53.198;45.008;2024-03-08T14:58:44;18.98;;;10.88;;
85104;SDS011;75457;53.198;45.008;2024-03-08T15:01:10;16.50;;;10.05;;
85104;SDS011;75457;53.198;45.008;2024-03-08T15:03:36;18.73;;;10.93;;
85104;SDS011;75457;53.198;45.008;2024-03-08T15:06:03;20.50;;;10.43;;
85104;SDS011;75457;53.198;45.008;2024-03-08T15:08:29;19.52;;;10.65;;
85104;SDS011;75457;53.198;45.008;2024-03-08T15:10:54;17.48;;;10.77;;
85104;SDS011;75457;53.198;45.008;2024-03-08T15:13:20;21.15;;;11.32;;
85104;SDS011;75457;53.198;45.008;2024-03-08T15:15:46;17.45;;;10.27;;
85104;SDS011;75457;53.198;45.008;2024-03-08T15:18:11;17.85;;;10.63;;
85104;SDS011;75457;53.198;45.008;2024-03-08T15:20:37;18.30;;;10.90;;
85104;SDS011;75457;53.198;45.008;2024-03-08T15:23:04;17.92;;;9.60;;
85104;SDS011;75457;53.198;45.008;2024-03-08T15:25:29;18.38;;;10.13;;
85104;SDS011;75457;53.198;45.008;2024-03-08T15:27:55;18.02;;;10.55;;
85104;SDS011;75457;53.198;45.008;2024-03-08T15:30:21;21.80;;;11.02;;
85104;SDS011;75457;53.198;45.008;2024-03-08T15:32:46;18.42;;;10.65;;
85104;SDS011;75457;53.198;45.008;2024-03-08T15:35:12;17.25;;;9.93;;
85104;SDS011;75457;53.198;45.008;2024-03-08T15:37:38;19.27;;;11.18;;
85104;SDS011;75457;53.198;45.008;2024-03-08T15:40:06;21.10;;;11.00;;